Time;durP1;ratioP1;P1;durP2;ratioP2;P2;SDS_P1;SDS_P2;PMS_P1;PMS_P2;Temp;Humidity;BMP_temperature;BMP_pressure;BME280_temperature;BME280_humidity;BME280_pressure;Samples;Min_cycle;Max_cycle;Signal;HPM_P1;HPM_P2
2021/06/30 00:02:06;;;;;;;5.10;4.35;;;;;;;28.39;59.16;101294.55;1580866;90;21079;-54
2021/06/30 00:04:32;;;;;;;6.33;4.25;;;;;;;28.40;59.14;101306.11;1599720;89;21621;-58
2021/06/30 00:07:01;;;;;;;7.92;4.33;;;;;;;28.38;59.17;101303.55;1608555;89;21026;-52
2021/06/30 00:09:29;;;;;;;5.83;4.50;;;;;;;28.37;59.21;101304.55;1601854;89;21525;-52
2021/06/30 00:11:55;;;;;;;8.75;4.95;;;;;;;28.36;59.26;101302.84;1604664;89;21105;-57
2021/06/30 00:14:23;;;;;;;10.65;5.20;;;;;;;28.35;59.28;101301.16;1594794;89;21573;-53
2021/06/30 00:16:52;;;;;;;6.15;4.30;;;;;;;28.33;59.32;101300.45;1600532;89;21054;-52
2021/06/30 00:19:18;;;;;;;7.85;4.83;;;;;;;28.32;59.38;101296.05;1588566;90;21620;-53
2021/06/30 00:21:45;;;;;;;4.97;4.50;;;;;;;28.33;59.46;101300.45;1602275;89;21082;-53
2021/06/30 00:24:12;;;;;;;5.42;4.03;;;;;;;28.33;59.52;101300.92;1594631;89;21051;-53
2021/06/30 00:26:39;;;;;;;8.38;4.78;;;;;;;28.31;59.67;101286.34;1595616;89;21561;-58
2021/06/30 00:29:06;;;;;;;4.92;4.10;;;;;;;28.30;59.82;101286.45;1608267;89;21029;-53
2021/06/30 00:31:33;;;;;;;6.25;4.92;;;;;;;28.29;59.89;101285.63;1592697;89;21633;-53
2021/06/30 00:34:03;;;;;;;4.83;4.03;;;;;;;28.27;59.94;101290.27;1603005;89;21073;-52
2021/06/30 00:36:43;;;;;;;5.63;3.83;;;;;;;28.26;59.93;101292.58;1661596;85;21046;-53
2021/06/30 00:39:07;;;;;;;5.12;4.50;;;;;;;28.25;59.97;101290.90;1659282;86;21061;-54
2021/06/30 00:41:33;;;;;;;6.72;4.70;;;;;;;28.24;60.04;101295.88;1667288;86;21513;-54
2021/06/30 00:44:00;;;;;;;6.95;6.25;;;;;;;28.23;60.06;101287.99;1662647;85;21082;-54
2021/06/30 00:46:30;;;;;;;9.38;6.37;;;;;;;28.22;60.03;101287.14;1664468;86;21509;-52
2021/06/30 00:48:59;;;;;;;9.78;7.35;;;;;;;28.22;60.02;101292.48;1655077;86;21546;-53
2021/06/30 00:51:27;;;;;;;8.00;7.00;;;;;;;28.19;59.98;101290.09;1616686;88;21089;-53
2021/06/30 00:53:54;;;;;;;11.55;7.87;;;;;;;28.17;59.89;101296.89;1644686;86;21042;-53
2021/06/30 00:56:24;;;;;;;6.65;5.85;;;;;;;28.15;59.86;101306.06;1610705;88;21114;-53
2021/06/30 00:58:55;;;;;;;6.37;5.10;;;;;;;28.15;59.90;101302.05;1597253;88;21071;-53
2021/06/30 01:01:22;;;;;;;7.83;5.33;;;;;;;28.12;59.87;101303.64;1611321;88;21034;-53
2021/06/30 01:03:49;;;;;;;5.12;4.22;;;;;;;28.10;59.87;101313.14;1592117;89;21074;-54
2021/06/30 01:06:16;;;;;;;5.00;4.42;;;;;;;28.11;59.85;101305.94;1621295;88;21621;-54
2021/06/30 01:08:43;;;;;;;6.72;5.22;;;;;;;28.09;59.83;101305.22;1618262;88;21069;-54
2021/06/30 01:11:09;;;;;;;6.53;5.33;;;;;;;28.10;59.88;101309.61;1646229;86;21058;-55
2021/06/30 01:13:39;;;;;;;4.50;4.10;;;;;;;28.09;59.87;101307.90;1623018;87;21134;-52
2021/06/30 01:16:07;;;;;;;9.73;4.25;;;;;;;28.09;59.86;101306.56;1657210;86;21065;-54
2021/06/30 01:18:35;;;;;;;6.03;4.12;;;;;;;28.09;59.88;101307.90;1615350;88;21048;-56
2021/06/30 01:21:04;;;;;;;6.10;3.90;;;;;;;28.08;59.87;101303.06;1620439;88;21117;-54
2021/06/30 01:23:31;;;;;;;7.87;4.62;;;;;;;28.08;59.91;101303.55;1618783;88;21022;-59
2021/06/30 01:25:58;;;;;;;5.55;3.87;;;;;;;28.08;59.97;101306.22;1615486;88;22175;-52
2021/06/30 01:28:26;;;;;;;8.65;4.37;;;;;;;28.08;59.99;101306.22;1598743;89;21114;-53
2021/06/30 01:30:53;;;;;;;8.08;4.87;;;;;;;28.08;59.95;101298.19;1629997;87;21082;-52
2021/06/30 01:33:20;;;;;;;6.53;4.45;;;;;;;28.08;59.95;101298.19;1649961;86;21518;-52
2021/06/30 01:35:47;;;;;;;8.05;4.67;;;;;;;28.08;60.00;101295.52;1621411;88;21100;-53
2021/06/30 01:38:13;;;;;;;8.38;4.30;;;;;;;28.07;60.06;101295.14;1599578;89;21181;-57
2021/06/30 01:40:40;;;;;;;8.70;4.22;;;;;;;28.07;60.15;101296.48;1647470;87;21563;-53
2021/06/30 01:43:07;;;;;;;6.10;4.28;;;;;;;28.08;60.18;101300.88;1642425;86;21065;-56
2021/06/30 01:45:36;;;;;;;4.97;3.92;;;;;;;28.08;60.20;101303.55;1650032;86;21113;-53
2021/06/30 01:48:04;;;;;;;7.70;4.10;;;;;;;28.07;60.25;101304.51;1651006;86;21049;-53
2021/06/30 01:50:30;;;;;;;7.97;4.53;;;;;;;28.07;60.26;101308.52;1642717;87;21538;-54
2021/06/30 01:52:57;;;;;;;5.15;4.03;;;;;;;28.07;60.22;101301.83;1647338;86;21046;-54
2021/06/30 01:55:24;;;;;;;10.98;4.45;;;;;;;28.06;60.21;101301.02;1645314;87;21558;-53
2021/06/30 01:57:51;;;;;;;5.87;4.50;;;;;;;28.06;60.25;101297.48;1644447;87;21062;-53
2021/06/30 02:00:19;;;;;;;7.37;4.50;;;;;;;28.07;60.31;101301.83;1649353;87;21574;-54
2021/06/30 02:02:47;;;;;;;6.65;4.92;;;;;;;28.07;60.35;101301.83;1646958;86;21135;-57
2021/06/30 02:05:20;;;;;;;9.60;4.75;;;;;;;28.08;60.47;101306.22;1644090;86;21053;-57
2021/06/30 02:07:51;;;;;;;11.40;5.85;;;;;;;28.09;60.53;101310.58;1665287;86;21548;-54
2021/06/30 02:10:21;;;;;;;14.43;5.42;;;;;;;28.09;60.53;101315.92;1627371;87;21097;-54
2021/06/30 02:12:47;;;;;;;12.90;5.40;;;;;;;28.09;60.57;101318.60;1590500;89;21033;-53
2021/06/30 02:15:24;;;;;;;8.55;4.05;;;;;;;28.10;60.57;101318.98;1589779;90;21546;-54
2021/06/30 02:17:53;;;;;;;7.50;4.15;;;;;;;28.10;60.67;101321.17;1594767;89;21086;-53
2021/06/30 02:20:20;;;;;;;7.75;4.75;;;;;;;28.11;60.74;101320.17;1591263;89;21691;-54
2021/06/30 02:22:47;;;;;;;5.65;4.08;;;;;;;28.11;60.80;101314.82;1592612;89;21062;-53
2021/06/30 02:25:18;;;;;;;8.43;4.80;;;;;;;28.12;60.86;101318.35;1595131;89;21066;-53
2021/06/30 02:27:45;;;;;;;8.73;4.97;;;;;;;28.12;60.92;101321.03;1571431;91;21176;-54
2021/06/30 02:30:16;;;;;;;9.10;4.72;;;;;;;28.12;61.01;101315.67;1556929;92;21157;-53
2021/06/30 02:32:42;;;;;;;6.97;4.58;;;;;;;28.12;61.11;101318.35;1551698;92;21562;-54
2021/06/30 02:35:13;;;;;;;7.15;4.40;;;;;;;28.13;61.25;101320.06;1551443;92;21070;-54
2021/06/30 02:37:40;;;;;;;9.10;5.37;;;;;;;28.14;61.33;101320.41;1551561;92;21078;-54
2021/06/30 02:40:10;;;;;;;5.85;4.80;;;;;;;28.16;61.38;101319.78;1551469;92;21049;-54
2021/06/30 02:42:37;;;;;;;6.53;4.78;;;;;;;28.16;61.34;101321.98;1551589;92;21058;-54
2021/06/30 02:45:07;;;;;;;7.62;4.60;;;;;;;28.18;61.38;101321.84;1551505;92;21030;-55
2021/06/30 02:47:35;;;;;;;11.10;4.90;;;;;;;28.20;61.40;101330.58;1551545;92;21518;-55
2021/06/30 02:50:06;;;;;;;9.95;5.00;;;;;;;28.21;61.36;101329.61;1551623;92;21049;-54
2021/06/30 02:52:33;;;;;;;7.70;5.28;;;;;;;28.19;61.47;101331.58;1551575;92;21606;-59
2021/06/30 02:55:00;;;;;;;9.85;4.87;;;;;;;28.25;61.39;101329.70;1551724;92;21577;-52
2021/06/30 02:57:27;;;;;;;9.55;4.50;;;;;;;28.27;61.30;101328.23;1551309;92;21078;-52
2021/06/30 02:59:55;;;;;;;10.28;5.00;;;;;;;28.29;61.22;101329.80;1551618;92;21050;-52
2021/06/30 03:02:22;;;;;;;7.83;4.83;;;;;;;28.20;61.38;101333.25;1551682;92;21541;-52
2021/06/30 03:04:49;;;;;;;9.35;5.12;;;;;;;28.27;61.09;101333.09;1551658;92;21106;-52
2021/06/30 03:07:17;;;;;;;9.80;4.65;;;;;;;28.30;60.94;101338.17;1554108;91;21056;-55
2021/06/30 03:09:44;;;;;;;8.93;4.95;;;;;;;28.31;60.82;101342.55;1551290;92;21102;-52
2021/06/30 03:12:11;;;;;;;6.90;4.55;;;;;;;28.31;60.65;101339.88;1551177;92;21652;-53
2021/06/30 03:14:40;;;;;;;5.00;4.08;;;;;;;28.32;60.41;101334.87;1551140;91;21066;-53
2021/06/30 03:17:08;;;;;;;9.25;4.22;;;;;;;28.32;60.12;101333.53;1550943;91;21051;-52
2021/06/30 03:19:35;;;;;;;8.73;3.98;;;;;;;28.32;59.98;101330.85;1551105;92;21090;-53
2021/06/30 03:22:03;;;;;;;6.53;3.80;;;;;;;28.31;59.97;101333.19;1551270;92;21110;-53
2021/06/30 03:24:30;;;;;;;7.28;4.12;;;;;;;28.31;59.92;101334.52;1574616;90;21562;-52
2021/06/30 03:26:58;;;;;;;4.78;3.70;;;;;;;28.32;59.85;101338.02;1597923;90;21054;-54
2021/06/30 03:29:24;;;;;;;7.53;5.20;;;;;;;28.32;59.85;101333.53;1603413;89;21609;-53
2021/06/30 03:31:51;;;;;;;4.97;4.17;;;;;;;28.33;59.82;101339.25;1609536;88;21073;-55
2021/06/30 03:34:18;;;;;;;7.65;4.75;;;;;;;28.35;59.78;101329.27;1605637;89;22076;-55
2021/06/30 03:36:44;;;;;;;21.35;19.02;;;;;;;28.37;59.80;101329.98;1610151;88;21074;-53
2021/06/30 03:39:11;;;;;;;11.30;8.33;;;;;;;28.40;59.72;101329.69;1603712;89;21118;-53
2021/06/30 03:41:38;;;;;;;8.13;5.15;;;;;;;28.44;59.51;101329.78;1609438;88;21077;-53
2021/06/30 03:44:05;;;;;;;5.33;3.95;;;;;;;28.52;59.46;101328.62;1610216;88;21062;-53
2021/06/30 03:46:33;;;;;;;6.95;3.70;;;;;;;28.67;59.26;101332.67;1611526;88;21065;-53
2021/06/30 03:49:00;;;;;;;4.70;3.35;;;;;;;28.95;58.52;101325.20;1663696;85;21068;-56
2021/06/30 03:51:26;;;;;;;6.47;3.55;;;;;;;29.40;57.41;101319.39;1663854;86;21088;-58
2021/06/30 03:53:53;;;;;;;5.30;2.95;;;;;;;29.91;56.07;101315.94;1668702;85;21076;-57
2021/06/30 03:56:24;;;;;;;9.23;3.30;;;;;;;30.48;54.65;101322.52;1666010;86;21040;-55
2021/06/30 03:58:48;;;;;;;5.47;3.55;;;;;;;31.07;53.05;101323.94;1662347;86;21049;-60
2021/06/30 04:01:16;;;;;;;6.78;3.05;;;;;;;31.65;51.58;101318.51;1663761;85;21049;-54
2021/06/30 04:03:45;;;;;;;5.17;3.10;;;;;;;32.20;50.11;101319.59;1666756;86;21089;-55
2021/06/30 04:06:12;;;;;;;7.10;3.00;;;;;;;32.67;48.71;101324.92;1663467;85;21068;-54
2021/06/30 04:08:39;;;;;;;5.62;3.40;;;;;;;32.99;47.51;101322.90;1664117;85;21482;-52
2021/06/30 04:11:05;;;;;;;6.80;3.30;;;;;;;33.05;47.06;101319.05;1671446;85;21052;-53
2021/06/30 04:13:32;;;;;;;6.78;5.50;;;;;;;32.94;47.04;101315.27;1670626;85;21013;-53
2021/06/30 04:15:59;;;;;;;6.50;4.87;;;;;;;32.75;47.32;101313.69;1669479;86;21082;-53
2021/06/30 04:18:25;;;;;;;5.90;4.15;;;;;;;32.56;47.74;101310.42;1668746;85;21072;-55
2021/06/30 04:20:53;;;;;;;5.67;3.20;;;;;;;32.39;48.08;101312.64;1665501;86;21585;-54
2021/06/30 04:23:19;;;;;;;19.15;17.17;;;;;;;32.19;48.36;101310.66;1662854;86;21065;-54
2021/06/30 04:25:47;;;;;;;8.03;7.22;;;;;;;31.96;48.77;101310.34;1668128;86;21095;-53
2021/06/30 04:28:14;;;;;;;4.33;3.92;;;;;;;31.70;49.26;101308.11;1665863;85;21033;-54
2021/06/30 04:30:42;;;;;;;4.33;3.47;;;;;;;31.48;49.82;101315.32;1668077;85;21025;-53
2021/06/30 04:33:09;;;;;;;5.72;3.83;;;;;;;31.24;50.39;101313.72;1644322;86;21059;-53
2021/06/30 04:35:36;;;;;;;9.30;3.55;;;;;;;31.02;50.89;101315.47;1668044;86;21375;-53
2021/06/30 04:38:05;;;;;;;12.25;4.20;;;;;;;30.84;51.40;101318.59;1665806;86;21049;-53
2021/06/30 04:40:32;;;;;;;16.82;10.95;;;;;;;30.67;51.88;101315.36;1664599;86;21038;-53
2021/06/30 04:42:59;;;;;;;17.12;7.75;;;;;;;30.52;52.20;101311.82;1669374;86;21102;-53
2021/06/30 04:45:27;;;;;;;5.65;4.78;;;;;;;30.40;52.54;101313.49;1664926;85;21049;-58
2021/06/30 04:47:55;;;;;;;4.55;3.33;;;;;;;30.30;52.88;101313.54;1664226;86;21041;-55
2021/06/30 04:50:22;;;;;;;9.75;4.05;;;;;;;30.22;53.07;101321.45;1665980;85;21109;-54
2021/06/30 04:52:49;;;;;;;7.28;4.70;;;;;;;30.15;53.31;101323.01;1663846;86;21526;-53
2021/06/30 04:55:16;;;;;;;7.30;4.55;;;;;;;30.07;53.46;101322.89;1654924;86;21037;-53
2021/06/30 04:57:43;;;;;;;5.60;3.45;;;;;;;30.02;53.52;101325.66;1667079;86;21038;-56
2021/06/30 05:00:11;;;;;;;7.53;3.92;;;;;;;29.99;53.57;101325.45;1665158;85;21068;-55
2021/06/30 05:02:37;;;;;;;6.28;3.55;;;;;;;29.97;53.62;101326.58;1666523;86;21568;-55
2021/06/30 05:05:06;;;;;;;4.25;3.83;;;;;;;29.97;53.66;101331.45;1670416;85;21529;-57
2021/06/30 05:07:33;;;;;;;13.05;6.30;;;;;;;29.98;53.81;101334.51;1662913;84;21548;-55
2021/06/30 05:10:01;;;;;;;10.90;9.88;;;;;;;30.00;53.93;101328.50;1648855;87;21052;-56
2021/06/30 05:12:28;;;;;;;8.35;5.20;;;;;;;30.05;53.93;101329.38;1606450;89;21039;-54
2021/06/30 05:14:56;;;;;;;5.30;4.22;;;;;;;30.13;53.79;101331.70;1647609;87;22794;-55
2021/06/30 05:17:24;;;;;;;5.03;3.75;;;;;;;30.19;53.70;101337.83;1648489;86;21081;-54
2021/06/30 05:19:51;;;;;;;5.15;4.42;;;;;;;30.26;53.56;101336.27;1641773;87;21040;-54
2021/06/30 05:22:18;;;;;;;5.03;3.25;;;;;;;30.24;53.40;101334.23;1668357;85;21032;-55
2021/06/30 05:24:44;;;;;;;4.33;3.20;;;;;;;30.30;53.11;101339.05;1662219;84;21045;-56
2021/06/30 05:27:11;;;;;;;3.95;3.33;;;;;;;30.32;53.37;101341.09;1661029;86;21051;-56
2021/06/30 05:29:38;;;;;;;9.15;3.67;;;;;;;30.32;53.55;101346.45;1645797;84;21078;-57
2021/06/30 05:32:06;;;;;;;5.03;4.30;;;;;;;30.29;53.77;101349.45;1638166;87;20999;-57
2021/06/30 05:34:33;;;;;;;11.85;10.55;;;;;;;30.29;53.91;101352.59;1624523;87;21508;-57
2021/06/30 05:37:00;;;;;;;17.82;15.83;;;;;;;30.26;53.78;101351.53;1621498;86;21045;-60
2021/06/30 05:39:26;;;;;;;4.92;4.15;;;;;;;30.22;53.79;101346.95;1636404;87;21027;-56
2021/06/30 05:41:53;;;;;;;4.75;3.52;;;;;;;30.21;53.63;101342.56;1636484;87;21063;-56
2021/06/30 05:44:20;;;;;;;5.37;3.30;;;;;;;30.22;53.60;101345.61;1647931;86;21523;-57
2021/06/30 05:46:48;;;;;;;5.62;3.22;;;;;;;30.23;53.64;101345.94;1626101;86;21102;-58
2021/06/30 05:49:16;;;;;;;6.37;3.12;;;;;;;30.25;53.74;101347.98;1640487;85;21071;-62
2021/06/30 05:51:45;;;;;;;6.47;3.50;;;;;;;30.27;53.82;101347.86;1651877;86;21032;-56
2021/06/30 05:54:12;;;;;;;5.72;3.20;;;;;;;30.29;53.80;101349.45;1644970;85;21069;-60
2021/06/30 05:56:39;;;;;;;4.12;3.55;;;;;;;30.33;53.50;101348.17;1642664;86;21585;-55
2021/06/30 05:59:06;;;;;;;13.15;11.53;;;;;;;30.36;53.30;101353.23;1634613;87;21005;-57
2021/06/30 06:01:33;;;;;;;11.95;10.80;;;;;;;30.39;53.24;101355.64;1628850;87;21197;-54
2021/06/30 06:04:00;;;;;;;11.68;10.55;;;;;;;30.41;53.38;101360.36;1638089;87;21039;-55
2021/06/30 06:06:27;;;;;;;7.53;4.20;;;;;;;30.46;53.34;101356.73;1632623;87;21042;-62
2021/06/30 06:08:55;;;;;;;3.98;3.58;;;;;;;30.48;53.32;101354.73;1637361;87;21091;-55
2021/06/30 06:11:22;;;;;;;6.97;3.35;;;;;;;30.52;53.26;101358.83;1640135;87;21068;-56
2021/06/30 06:13:48;;;;;;;3.58;2.98;;;;;;;30.57;53.18;101362.91;1628079;87;21058;-56
2021/06/30 06:16:20;;;;;;;3.75;3.20;;;;;;;30.63;53.10;101364.52;1642071;86;21026;-60
2021/06/30 06:18:47;;;;;;;5.20;3.70;;;;;;;30.73;52.90;101368.52;1622784;86;21605;-58
2021/06/30 06:21:14;;;;;;;26.85;14.03;;;;;;;30.84;52.70;101368.31;1632957;87;21129;-57
2021/06/30 06:23:41;;;;;;;13.45;6.60;;;;;;;30.93;52.33;101362.09;1630089;86;21528;-57
2021/06/30 06:26:09;;;;;;;6.37;3.92;;;;;;;30.99;52.09;101364.17;1648509;85;21118;-57
2021/06/30 06:28:36;;;;;;;5.25;3.62;;;;;;;30.99;51.92;101361.00;1658772;86;21089;-55
2021/06/30 06:31:04;;;;;;;5.55;3.95;;;;;;;30.98;51.77;101365.16;1667632;85;21085;-56
2021/06/30 06:33:32;;;;;;;5.47;4.92;;;;;;;30.94;51.83;101369.98;1617485;87;21067;-55
2021/06/30 06:35:58;;;;;;;14.60;13.20;;;;;;;30.91;52.02;101365.42;1630034;87;21050;-56
2021/06/30 06:38:26;;;;;;;15.30;8.78;;;;;;;30.87;52.11;101365.37;1638755;86;21122;-55
2021/06/30 06:40:52;;;;;;;9.68;4.47;;;;;;;30.86;52.19;101361.83;1634943;86;21047;-56
2021/06/30 06:43:19;;;;;;;4.95;4.50;;;;;;;30.85;52.13;101364.16;1634876;87;21094;-58
2021/06/30 06:45:47;;;;;;;5.10;3.92;;;;;;;30.86;52.10;101366.35;1634765;86;21079;-59
2021/06/30 06:48:13;;;;;;;4.90;3.98;;;;;;;30.88;51.79;101358.50;1633043;87;21072;-55
2021/06/30 06:50:41;;;;;;;7.15;5.47;;;;;;;30.88;51.56;101367.05;1628260;87;21027;-57
2021/06/30 06:53:07;;;;;;;5.97;4.17;;;;;;;30.87;51.65;101365.37;1633075;87;21042;-57
2021/06/30 06:55:35;;;;;;;7.58;4.35;;;;;;;30.85;51.71;101359.30;1635118;86;21083;-56
2021/06/30 06:58:02;;;;;;;6.37;3.95;;;;;;;30.86;51.65;101359.63;1640210;86;20998;-59
2021/06/30 07:00:29;;;;;;;5.80;5.20;;;;;;;30.85;51.63;101360.64;1656715;84;21097;-57
2021/06/30 07:02:57;;;;;;;7.22;6.53;;;;;;;30.86;51.70;101359.63;1642130;85;21055;-57
2021/06/30 07:05:24;;;;;;;6.40;5.50;;;;;;;30.91;51.88;101360.05;1664313;85;21516;-56
2021/06/30 07:07:52;;;;;;;8.48;4.35;;;;;;;31.00;52.01;101354.61;1655806;85;21046;-56
2021/06/30 07:10:18;;;;;;;5.12;3.45;;;;;;;31.13;51.69;101360.48;1642724;86;21046;-55
2021/06/30 07:12:46;;;;;;;5.75;3.72;;;;;;;31.23;51.53;101353.69;1651678;86;21041;-56
2021/06/30 07:15:13;;;;;;;11.70;10.53;;;;;;;31.32;51.40;101352.79;1647217;86;21054;-59
2021/06/30 07:17:40;;;;;;;12.60;11.28;;;;;;;31.39;51.28;101350.34;1657638;85;21041;-57
2021/06/30 07:20:08;;;;;;;9.08;7.42;;;;;;;31.49;51.17;101350.62;1616336;87;21021;-55
2021/06/30 07:22:35;;;;;;;4.37;3.65;;;;;;;31.58;50.87;101352.40;1630730;87;21082;-57
2021/06/30 07:25:04;;;;;;;4.65;3.30;;;;;;;31.70;50.26;101353.00;1618763;86;21633;-57
2021/06/30 07:27:31;;;;;;;5.00;3.35;;;;;;;31.79;49.71;101358.31;1629183;87;21034;-58
2021/06/30 07:29:58;;;;;;;4.87;3.50;;;;;;;31.84;49.34;101354.64;1595181;88;21063;-57
2021/06/30 07:32:25;;;;;;;16.73;11.10;;;;;;;31.86;49.03;101351.81;1632051;86;21070;-57
2021/06/30 07:34:52;;;;;;;9.33;6.83;;;;;;;31.85;48.88;101353.66;1590625;89;21070;-56
2021/06/30 07:37:19;;;;;;;4.53;3.70;;;;;;;31.83;48.96;101360.19;1598813;87;21042;-56
2021/06/30 07:39:45;;;;;;;6.50;3.85;;;;;;;31.78;49.22;101355.27;1627984;86;21089;-57
2021/06/30 07:42:13;;;;;;;7.17;6.58;;;;;;;31.73;49.34;101354.05;1620703;87;21051;-59
2021/06/30 07:44:43;;;;;;;7.17;4.92;;;;;;;31.67;49.51;101354.17;1616122;86;21085;-57
2021/06/30 07:47:10;;;;;;;3.80;3.37;;;;;;;31.60;49.66;101353.58;1639173;87;21545;-59
2021/06/30 07:49:38;;;;;;;7.30;3.60;;;;;;;31.52;49.77;101357.55;1630198;87;21026;-57
2021/06/30 07:52:06;;;;;;;4.92;3.70;;;;;;;31.42;50.07;101353.59;1597014;87;21558;-56
2021/06/30 07:54:34;;;;;;;5.08;3.40;;;;;;;31.35;50.28;101348.95;1609561;87;21142;-59
2021/06/30 07:57:00;;;;;;;6.37;3.70;;;;;;;31.27;50.48;101349.70;1607432;86;21026;-58
2021/06/30 07:59:27;;;;;;;7.15;3.37;;;;;;;31.22;50.57;101358.73;1607126;86;21038;-58
2021/06/30 08:01:55;;;;;;;3.70;3.30;;;;;;;31.16;51.09;101355.31;1646972;85;21037;-56
2021/06/30 08:04:21;;;;;;;4.83;4.25;;;;;;;31.15;51.36;101358.98;1647747;86;21045;-55
2021/06/30 08:06:49;;;;;;;4.58;3.52;;;;;;;31.15;51.52;101358.98;1664901;85;21570;-64
2021/06/30 08:09:16;;;;;;;6.47;3.83;;;;;;;31.16;51.67;101358.82;1656276;86;21049;-56
2021/06/30 08:11:45;;;;;;;5.30;3.75;;;;;;;31.19;51.91;101359.02;1657925;85;21026;-63
2021/06/30 08:14:12;;;;;;;5.83;3.30;;;;;;;31.22;51.97;101357.39;1659249;85;21015;-56
2021/06/30 08:16:40;;;;;;;7.22;4.35;;;;;;;31.26;52.12;101347.50;1650476;86;21049;-57
2021/06/30 08:19:08;;;;;;;5.10;3.80;;;;;;;31.29;52.20;101343.66;1654840;85;21562;-60
2021/06/30 08:21:36;;;;;;;5.50;4.08;;;;;;;31.33;52.34;101347.25;1649048;85;21052;-56
2021/06/30 08:24:04;;;;;;;5.60;4.05;;;;;;;31.37;52.24;101345.09;1659824;85;21115;-58
2021/06/30 08:26:32;;;;;;;5.80;3.47;;;;;;;31.41;52.08;101341.13;1656780;84;21564;-56
2021/06/30 08:28:59;;;;;;;6.47;3.62;;;;;;;31.44;52.10;101340.84;1647163;86;20993;-56
2021/06/30 08:31:26;;;;;;;5.00;3.15;;;;;;;31.48;52.05;101342.22;1657952;85;21918;-55
2021/06/30 08:33:54;;;;;;;6.60;3.40;;;;;;;31.51;51.98;101341.89;1661293;85;21074;-54
2021/06/30 08:36:21;;;;;;;5.28;3.70;;;;;;;31.53;52.09;101338.55;1633216;87;21027;-60
2021/06/30 08:38:48;;;;;;;10.05;4.10;;;;;;;31.58;52.07;101344.33;1632648;87;21094;-58
2021/06/30 08:41:17;;;;;;;6.55;3.60;;;;;;;31.62;51.92;101345.70;1637087;87;21089;-61
2021/06/30 08:43:44;;;;;;;4.53;3.33;;;;;;;31.66;51.84;101345.75;1637585;86;21617;-57
2021/06/30 08:46:11;;;;;;;4.65;4.22;;;;;;;31.70;51.73;101349.81;1632481;87;21110;-55
2021/06/30 08:48:38;;;;;;;7.12;5.10;;;;;;;31.71;51.59;101350.17;1636307;86;21077;-57
2021/06/30 08:51:05;;;;;;;7.53;4.80;;;;;;;31.73;51.76;101352.21;1634927;84;21045;-56
2021/06/30 08:53:33;;;;;;;5.33;3.47;;;;;;;31.76;51.89;101359.95;1639514;86;21071;-59
2021/06/30 08:56:00;;;;;;;6.30;3.30;;;;;;;31.77;51.81;101356.28;1634563;87;21069;-58
2021/06/30 08:58:27;;;;;;;6.35;3.02;;;;;;;31.81;51.80;101352.28;1643307;87;21031;-58
2021/06/30 09:00:54;;;;;;;12.30;10.08;;;;;;;31.84;51.73;101350.60;1626649;87;21026;-58
2021/06/30 09:03:21;;;;;;;9.98;8.58;;;;;;;31.87;51.78;101346.27;1613393;87;21117;-57
2021/06/30 09:08:45;;;;;;;8.33;7.42;;;;;;;31.93;51.72;101348.36;1647450;85;21042;-56
2021/06/30 09:11:16;;;;;;;8.43;4.90;;;;;;;31.95;51.52;101342.81;1620108;86;21011;-57
2021/06/30 09:13:45;;;;;;;10.53;9.38;;;;;;;31.96;51.50;101342.65;1604581;88;21061;-58
2021/06/30 09:16:12;;;;;;;6.42;5.20;;;;;;;31.95;51.53;101346.36;1598070;88;21029;-59
2021/06/30 09:18:41;;;;;;;7.62;5.17;;;;;;;31.96;51.56;101341.30;1594418;88;21076;-59
2021/06/30 09:21:24;;;;;;;5.30;3.50;;;;;;;31.98;51.62;101338.48;1611293;88;21132;-59
2021/06/30 09:24:17;;;;;;;5.30;2.90;;;;;;;31.99;51.61;101334.27;1597487;88;21585;-58
2021/06/30 09:26:56;;;;;;;3.87;3.10;;;;;;;31.99;51.60;101334.27;1603282;88;21077;-59
2021/06/30 09:29:23;;;;;;;5.58;3.30;;;;;;;31.99;51.56;101341.00;1606633;88;21092;-57
2021/06/30 09:31:52;;;;;;;9.25;4.30;;;;;;;31.99;51.48;101335.63;1607805;88;21083;-58
2021/06/30 09:34:26;;;;;;;5.62;3.37;;;;;;;31.98;51.52;101329.06;1593643;88;21089;-59
2021/06/30 09:39:29;;;;;;;4.05;3.20;;;;;;;31.96;51.36;101327.84;1552680;90;21089;-60
2021/06/30 09:42:13;;;;;;;6.40;3.20;;;;;;;31.98;51.30;101333.09;1553987;90;21074;-55
2021/06/30 09:44:45;;;;;;;6.37;4.30;;;;;;;31.97;51.22;101333.59;1556019;91;21090;-63
2021/06/30 09:47:13;;;;;;;6.08;3.95;;;;;;;31.97;51.06;101336.28;1532208;92;21099;-57
2021/06/30 09:49:41;;;;;;;6.70;3.90;;;;;;;31.98;51.19;101333.92;1568146;91;21058;-57
2021/06/30 09:52:15;;;;;;;6.22;3.45;;;;;;;32.00;51.07;101337.82;1586974;88;21037;-57
2021/06/30 09:54:44;;;;;;;7.97;3.95;;;;;;;32.02;50.96;101337.16;1561452;90;21088;-57
2021/06/30 09:57:14;;;;;;;4.58;3.33;;;;;;;32.05;50.79;101326.06;1569250;91;21141;-58
2021/06/30 09:59:42;;;;;;;8.20;3.55;;;;;;;32.07;50.75;101320.87;1528587;93;21018;-58
2021/06/30 10:02:18;;;;;;;6.42;3.70;;;;;;;32.11;50.59;101320.56;1570255;90;21090;-60
2021/06/30 10:04:59;;;;;;;7.62;4.25;;;;;;;32.16;50.41;101324.95;1588141;90;21092;-57
2021/06/30 10:07:30;;;;;;;;;;;;;;;32.20;50.22;101322.29;1566161;90;21035;-57
2021/06/30 10:10:02;;;;;;;5.90;4.28;;;;;;;32.26;49.86;101314.91;1571124;89;20154;-57
2021/06/30 10:12:30;;;;;;;4.45;3.40;;;;;;;32.29;49.60;101309.23;1563852;91;21602;-58
2021/06/30 10:15:00;;;;;;;5.40;3.70;;;;;;;32.32;49.38;101307.55;1585594;89;21601;-55
2021/06/30 10:17:27;;;;;;;5.62;3.35;;;;;;;32.34;49.28;101319.00;1574473;90;21688;-59
2021/06/30 10:19:55;;;;;;;4.37;3.27;;;;;;;32.34;49.05;101316.30;1555794;90;21078;-56
2021/06/30 10:22:26;;;;;;;4.95;3.22;;;;;;;32.33;48.94;101307.41;1606140;88;21212;-56
2021/06/30 10:24:54;;;;;;;8.50;3.65;;;;;;;32.32;48.97;101306.20;1617489;88;21196;-57
2021/06/30 10:27:21;;;;;;;10.78;3.80;;;;;;;32.28;48.95;101309.72;1616828;88;21546;-57
2021/06/30 10:29:57;;;;;;;6.17;4.05;;;;;;;32.23;49.11;101303.14;1620548;88;21117;-60
2021/06/30 10:32:24;;;;;;;7.58;3.60;;;;;;;32.17;49.32;101302.42;1572261;90;21077;-57
2021/06/30 10:34:56;;;;;;;8.25;4.55;;;;;;;32.11;49.61;101300.38;1590711;89;21585;-57
2021/06/30 10:37:32;;;;;;;6.45;3.60;;;;;;;32.07;50.00;101297.98;1536736;91;21083;-57
2021/06/30 10:40:13;;;;;;;7.22;4.92;;;;;;;32.06;50.28;101299.00;1612805;87;21099;-56
2021/06/30 10:42:46;;;;;;;5.95;3.95;;;;;;;32.07;50.43;101304.71;1618436;88;21031;-58
2021/06/30 10:45:21;;;;;;;8.95;4.12;;;;;;;32.08;50.51;101299.69;1611185;88;21066;-55
2021/06/30 10:48:03;;;;;;;9.60;4.60;;;;;;;32.09;50.58;101301.36;1618490;88;21080;-57
2021/06/30 10:50:47;;;;;;;4.85;3.98;;;;;;;32.11;50.56;101307.10;1612638;88;21083;-59
2021/06/30 10:53:26;;;;;;;6.72;4.37;;;;;;;32.08;50.73;101303.73;1609599;88;21608;-63
2021/06/30 10:55:58;;;;;;;9.63;4.00;;;;;;;32.09;50.69;101302.70;1626645;86;21062;-57
2021/06/30 10:58:30;;;;;;;4.35;3.70;;;;;;;32.11;50.65;101294.98;1624005;87;21519;-59
2021/06/30 11:01:04;;;;;;;6.72;3.77;;;;;;;32.12;50.73;101295.31;1591924;87;21073;-60
2021/06/30 11:03:45;;;;;;;7.45;4.17;;;;;;;32.14;50.65;101285.23;1610284;87;21062;-58
2021/06/30 11:06:32;;;;;;;6.05;4.28;;;;;;;32.13;50.64;101280.87;1606887;87;21011;-60
2021/06/30 11:09:07;;;;;;;5.92;3.75;;;;;;;32.12;50.69;101288.09;1622153;88;21567;-58
2021/06/30 11:11:48;;;;;;;10.63;3.85;;;;;;;32.13;50.73;101275.48;1613270;88;21065;-58
2021/06/30 11:14:18;;;;;;;5.60;3.93;;;;;;;32.13;50.80;101283.55;1592942;87;21635;-59
2021/06/30 11:16:49;;;;;;;16.97;4.58;;;;;;;32.12;50.86;101273.77;1577218;90;21175;-56
2021/06/30 11:19:23;;;;;;;7.62;3.72;;;;;;;32.13;50.89;101278.17;1608004;88;21105;-57
2021/06/30 11:22:01;;;;;;;9.20;5.42;;;;;;;32.13;51.00;101278.17;1574139;89;21626;-59
2021/06/30 11:24:44;;;;;;;7.17;4.85;;;;;;;32.15;51.09;101290.97;1603471;88;21673;-58
2021/06/30 11:27:34;;;;;;;8.30;5.08;;;;;;;32.16;51.23;101287.26;1600708;88;21037;-59
2021/06/30 11:30:05;;;;;;;9.50;4.00;;;;;;;32.20;51.20;101279.20;1647884;86;21055;-56
2021/06/30 11:32:38;;;;;;;9.63;5.72;;;;;;;32.22;51.21;101286.62;1666757;85;21064;-59
2021/06/30 11:35:19;;;;;;;9.20;4.22;;;;;;;32.22;51.22;101285.27;1659807;85;21054;-57
2021/06/30 11:37:57;;;;;;;9.15;4.60;;;;;;;32.21;51.29;101283.59;1664245;86;20998;-61